createdAt,value
2022-12-01T00:01:58.063Z,12.90
2022-12-01T00:05:02.414Z,13.79
2022-12-01T00:08:09.480Z,13.54
2022-12-01T00:11:19.596Z,13.64
2022-12-01T00:14:25.153Z,13.93
2022-12-01T00:17:29.393Z,14.89
2022-12-01T00:20:33.375Z,14.41
2022-12-01T00:23:37.526Z,14.22
2022-12-01T00:26:41.527Z,14.75
2022-12-01T00:29:47.250Z,14.44
2022-12-01T00:32:53.573Z,14.18
2022-12-01T00:35:57.562Z,15.07
2022-12-01T00:39:03.467Z,14.13
2022-12-01T00:42:13.089Z,13.91
2022-12-01T00:45:17.780Z,14.35
2022-12-01T00:48:21.824Z,14.11
2022-12-01T00:51:25.958Z,13.94
2022-12-01T00:54:32.519Z,14.08
2022-12-01T00:57:36.883Z,14.08
2022-12-01T01:00:41.061Z,13.11
2022-12-01T01:03:45.128Z,13.80
2022-12-01T01:06:50.207Z,13.65
2022-12-01T01:09:54.725Z,13.57
2022-12-01T01:12:59.742Z,13.90
2022-12-01T01:16:03.857Z,13.51
2022-12-01T01:19:11.508Z,13.64
2022-12-01T01:22:15.659Z,14.32
2022-12-01T01:25:19.699Z,14.34
2022-12-01T01:28:27.388Z,14.38
2022-12-01T01:31:33.596Z,14.33
2022-12-01T01:38:09.763Z,14.75
2022-12-01T01:41:19.000Z,15.19
2022-12-01T01:44:25.560Z,15.03
2022-12-01T01:47:36.408Z,15.15
2022-12-01T01:50:41.964Z,15.15
2022-12-01T01:53:46.715Z,15.46
2022-12-01T01:56:53.261Z,14.80
2022-12-01T01:59:57.596Z,15.95
2022-12-01T02:03:01.592Z,15.89
2022-12-01T02:06:07.248Z,15.95
2022-12-01T02:09:13.674Z,15.70
2022-12-01T02:12:17.952Z,16.09
2022-12-01T02:15:23.626Z,16.03
2022-12-01T02:18:28.248Z,15.26
2022-12-01T02:21:32.282Z,15.37
2022-12-01T02:24:36.764Z,15.46
2022-12-01T02:27:40.837Z,15.40
2022-12-01T02:30:45.059Z,15.12
2022-12-01T02:33:52.825Z,14.68
2022-12-01T02:37:00.876Z,15.85
2022-12-01T02:40:06.413Z,14.90
2022-12-01T02:43:13.233Z,14.32
2022-12-01T02:46:17.697Z,14.21
2022-12-01T02:49:23.048Z,15.06
2022-12-01T02:52:28.349Z,14.99
2022-12-01T02:55:35.974Z,14.15
2022-12-01T02:58:42.381Z,14.32
2022-12-01T03:01:49.241Z,14.53
2022-12-01T03:04:56.072Z,14.35
2022-12-01T03:08:02.157Z,14.97
2022-12-01T03:11:06.390Z,14.51
2022-12-01T03:14:10.314Z,14.25
2022-12-01T03:17:15.126Z,14.14
2022-12-01T03:20:19.275Z,14.74
2022-12-01T03:23:23.454Z,13.88
2022-12-01T03:26:30.441Z,13.89
2022-12-01T03:29:34.944Z,14.01
2022-12-01T03:32:44.020Z,13.33
2022-12-01T03:35:52.944Z,13.45
2022-12-01T03:38:57.068Z,13.27
2022-12-01T03:42:05.335Z,12.77
2022-12-01T03:45:10.969Z,12.59
2022-12-01T03:48:15.386Z,12.07
2022-12-01T03:51:19.210Z,12.62
2022-12-01T03:54:24.518Z,12.36
2022-12-01T03:57:34.861Z,12.20
2022-12-01T04:00:39.272Z,12.78
2022-12-01T04:03:43.363Z,12.85
2022-12-01T04:06:47.511Z,12.54
2022-12-01T04:09:51.673Z,12.36
2022-12-01T04:12:56.187Z,12.09
2022-12-01T04:16:01.090Z,11.81
2022-12-01T04:19:05.130Z,12.05
2022-12-01T04:22:21.709Z,12.20
2022-12-01T04:25:25.913Z,12.27
2022-12-01T04:28:32.884Z,11.82
2022-12-01T04:31:39.608Z,12.15
2022-12-01T04:35:03.420Z,11.71
2022-12-01T04:38:27.424Z,12.00
2022-12-01T04:41:40.848Z,11.37
2022-12-01T04:44:46.074Z,11.03
2022-12-01T04:47:55.829Z,11.00
2022-12-01T04:51:01.417Z,10.90
2022-12-01T04:54:06.207Z,10.70
2022-12-01T04:57:10.658Z,11.21
2022-12-01T05:00:21.987Z,11.28
2022-12-01T05:06:57.138Z,11.24
2022-12-01T05:10:05.444Z,11.36
2022-12-01T05:13:10.178Z,11.65
2022-12-01T05:16:25.477Z,11.35
2022-12-01T05:23:05.671Z,12.00
2022-12-01T05:26:12.119Z,12.09
2022-12-01T05:29:16.483Z,12.75
2022-12-01T05:32:23.323Z,12.01
2022-12-01T05:35:31.068Z,12.42
2022-12-01T05:38:48.563Z,12.49
2022-12-01T05:41:58.762Z,13.09
2022-12-01T05:45:14.842Z,12.53
2022-12-01T05:48:20.050Z,13.25
2022-12-01T05:55:08.323Z,12.64
2022-12-01T05:58:12.667Z,12.91
2022-12-01T06:01:17.553Z,13.43
2022-12-01T06:04:29.417Z,12.65
2022-12-01T06:07:38.962Z,12.59
2022-12-01T06:14:10.018Z,11.88
2022-12-01T06:17:13.976Z,12.75
2022-12-01T06:20:29.830Z,12.02
2022-12-01T06:23:34.756Z,11.51
2022-12-01T06:26:41.025Z,11.05
2022-12-01T06:36:49.058Z,10.42
2022-12-01T06:39:55.598Z,9.90
2022-12-01T06:46:36.263Z,10.55
2022-12-01T06:53:19.621Z,10.17
2022-12-01T06:56:23.862Z,10.09
2022-12-01T06:59:30.337Z,10.53
2022-12-01T07:02:37.691Z,11.36
2022-12-01T07:09:17.579Z,12.19
2022-12-01T07:12:24.237Z,11.95
2022-12-01T07:15:32.344Z,12.31
2022-12-01T07:18:36.382Z,12.43
2022-12-01T07:21:40.483Z,12.41
2022-12-01T07:24:44.795Z,12.42
2022-12-01T07:27:49.020Z,12.25
2022-12-01T07:30:53.107Z,12.00
2022-12-01T07:33:57.014Z,12.06
2022-12-01T07:37:02.547Z,12.25
2022-12-01T07:40:06.766Z,11.96
2022-12-01T07:43:10.902Z,12.01
2022-12-01T07:46:20.404Z,12.24
2022-12-01T07:49:26.464Z,11.88
2022-12-01T07:52:30.298Z,11.96
2022-12-01T07:55:34.235Z,12.09
2022-12-01T07:58:39.213Z,11.65
2022-12-01T08:01:44.937Z,12.18
2022-12-01T08:04:49.077Z,11.56
2022-12-01T08:07:53.328Z,11.76
2022-12-01T08:10:57.247Z,11.40
2022-12-01T08:14:01.591Z,11.70
2022-12-01T08:17:05.725Z,11.78
2022-12-01T08:20:09.747Z,10.31
2022-12-01T08:23:13.619Z,11.13
2022-12-01T08:26:17.229Z,11.21
2022-12-01T08:29:21.306Z,11.57
2022-12-01T08:32:25.204Z,11.00
2022-12-01T08:35:29.492Z,10.85
2022-12-01T08:38:33.213Z,10.67
2022-12-01T08:41:37.248Z,10.70
2022-12-01T08:44:41.388Z,10.80
2022-12-01T08:47:45.482Z,10.80
2022-12-01T08:50:49.565Z,10.59
2022-12-01T08:53:53.618Z,10.37
2022-12-01T08:56:57.891Z,10.12
2022-12-01T09:00:03.040Z,10.28
2022-12-01T09:03:06.860Z,10.13
2022-12-01T09:06:10.722Z,10.32
2022-12-01T09:09:14.563Z,9.85
2022-12-01T09:12:18.694Z,9.59
2022-12-01T09:15:22.735Z,9.41
2022-12-01T09:18:26.457Z,9.19
2022-12-01T09:21:30.488Z,9.17
2022-12-01T09:24:34.557Z,9.10
2022-12-01T09:27:38.475Z,9.04
2022-12-01T09:30:42.569Z,8.57
2022-12-01T09:33:48.606Z,8.66
2022-12-01T09:36:52.429Z,9.06
2022-12-01T09:39:56.504Z,9.01
2022-12-01T09:43:00.723Z,9.11
2022-12-01T09:46:08.917Z,9.48
2022-12-01T09:52:42.331Z,9.16
2022-12-01T09:55:50.243Z,8.89
2022-12-01T10:02:40.834Z,8.60
2022-12-01T10:09:21.420Z,9.81
2022-12-01T10:12:25.987Z,8.90
2022-12-01T10:22:50.247Z,9.10
2022-12-01T10:29:32.423Z,9.04
2022-12-01T10:32:37.977Z,9.57
2022-12-01T10:39:14.825Z,9.90
2022-12-01T10:46:03.347Z,9.31
2022-12-01T10:52:55.102Z,9.97
2022-12-01T10:56:00.708Z,9.86
2022-12-01T10:59:05.184Z,11.51
2022-12-01T11:02:09.077Z,10.22
2022-12-01T11:05:13.381Z,10.66
2022-12-01T11:08:17.112Z,10.51
2022-12-01T11:11:24.917Z,10.94
2022-12-01T11:14:28.967Z,10.98
2022-12-01T11:17:33.222Z,11.55
2022-12-01T11:20:37.404Z,12.07
2022-12-01T11:23:45.704Z,11.89
2022-12-01T11:26:49.913Z,12.43
2022-12-01T11:29:53.812Z,12.02
2022-12-01T11:32:57.741Z,12.22
2022-12-01T11:36:01.727Z,12.73
2022-12-01T11:39:05.806Z,12.00
2022-12-01T11:42:12.797Z,11.90
2022-12-01T11:45:16.943Z,12.31
2022-12-01T11:48:20.953Z,12.75
2022-12-01T11:51:24.869Z,12.93
2022-12-01T11:54:28.754Z,12.55
2022-12-01T11:57:34.613Z,12.47
2022-12-01T12:00:39.890Z,12.79
2022-12-01T12:03:43.917Z,13.13
2022-12-01T12:06:47.786Z,12.67
2022-12-01T12:09:52.127Z,12.89
2022-12-01T12:12:56.526Z,13.09
2022-12-01T12:16:00.333Z,12.70
2022-12-01T12:19:04.130Z,12.34
2022-12-01T12:22:07.954Z,12.94
2022-12-01T12:25:11.989Z,13.21
2022-12-01T12:28:16.268Z,12.73
2022-12-01T12:31:20.361Z,12.84
2022-12-01T12:34:27.972Z,12.72
2022-12-01T12:37:32.291Z,12.29
2022-12-01T12:40:36.478Z,12.71
2022-12-01T12:43:41.891Z,13.22
2022-12-01T12:46:46.159Z,13.67
2022-12-01T12:49:50.237Z,13.61
2022-12-01T12:52:54.159Z,13.89
2022-12-01T12:55:58.469Z,13.40
2022-12-01T12:59:02.630Z,12.68
2022-12-01T13:02:06.543Z,13.42
2022-12-01T13:05:10.256Z,13.70
2022-12-01T13:08:14.056Z,13.09
2022-12-01T13:11:17.860Z,13.10
2022-12-01T13:14:21.846Z,13.02
2022-12-01T13:17:25.774Z,12.97
2022-12-01T13:20:29.717Z,12.77
2022-12-01T13:23:33.868Z,13.01
2022-12-01T13:26:37.755Z,13.41
2022-12-01T13:29:44.193Z,12.84
2022-12-01T13:32:48.366Z,13.33
2022-12-01T13:36:13.741Z,12.98
2022-12-01T13:39:16.072Z,12.63
2022-12-01T13:42:20.519Z,13.05
2022-12-01T13:45:24.355Z,13.13
2022-12-01T13:48:28.333Z,12.82
2022-12-01T13:51:32.238Z,12.56
2022-12-01T13:54:36.293Z,13.09
2022-12-01T13:57:40.424Z,13.48
2022-12-01T14:00:44.197Z,12.99
2022-12-01T14:03:50.892Z,12.78
2022-12-01T14:06:55.719Z,13.52
2022-12-01T14:09:59.906Z,13.14
2022-12-01T14:13:04.076Z,14.10
2022-12-01T14:16:08.305Z,14.61
2022-12-01T14:19:12.433Z,13.66
2022-12-01T14:22:16.286Z,14.24
2022-12-01T14:25:20.605Z,13.99
2022-12-01T14:28:24.583Z,14.34
2022-12-01T14:31:28.603Z,14.61
2022-12-01T14:34:32.563Z,14.50
2022-12-01T14:37:36.556Z,14.44
2022-12-01T14:40:40.526Z,14.92
2022-12-01T14:43:44.901Z,15.02
2022-12-01T14:46:49.088Z,15.37
2022-12-01T14:49:52.967Z,15.08
2022-12-01T14:52:57.044Z,15.47
2022-12-01T14:56:01.212Z,14.71
2022-12-01T14:59:05.221Z,14.94
2022-12-01T15:02:09.474Z,15.25
2022-12-01T15:05:13.336Z,14.80
2022-12-01T15:08:40.790Z,15.26
2022-12-01T15:11:41.155Z,15.10
2022-12-01T15:14:45.336Z,14.93
2022-12-01T15:17:49.336Z,14.89
2022-12-01T15:20:53.113Z,14.33
2022-12-01T15:23:57.067Z,14.60
2022-12-01T15:27:03.942Z,14.93
2022-12-01T15:30:08.500Z,14.52
2022-12-01T15:33:12.486Z,14.59
2022-12-01T15:36:16.391Z,14.75
2022-12-01T15:39:20.445Z,15.44
2022-12-01T15:42:24.395Z,15.05
2022-12-01T15:45:28.792Z,15.37
2022-12-01T15:48:32.689Z,15.59
2022-12-01T15:51:36.522Z,15.24
2022-12-01T15:54:40.374Z,15.41
2022-12-01T15:57:44.548Z,15.64
2022-12-01T16:00:48.560Z,15.55
2022-12-01T16:03:52.530Z,15.96
2022-12-01T16:06:56.644Z,15.95
2022-12-01T16:10:00.872Z,16.08
2022-12-01T16:13:05.218Z,15.83
2022-12-01T16:16:09.265Z,16.10
2022-12-01T16:19:13.164Z,16.15
2022-12-01T16:22:17.090Z,17.47
2022-12-01T16:25:21.211Z,17.15
2022-12-01T16:28:25.295Z,16.51
2022-12-01T16:31:29.231Z,17.04
2022-12-01T16:34:46.010Z,16.87
2022-12-01T16:37:50.854Z,16.06
2022-12-01T16:40:54.954Z,17.02
2022-12-01T16:44:26.529Z,16.89
2022-12-01T16:47:23.143Z,17.58
2022-12-01T16:50:26.903Z,17.32
2022-12-01T16:53:30.866Z,17.10
2022-12-01T16:56:34.968Z,17.05
2022-12-01T16:59:39.108Z,17.26
2022-12-01T17:02:43.262Z,17.75
2022-12-01T17:05:47.022Z,17.38
2022-12-01T17:08:51.217Z,17.97
2022-12-01T17:11:55.454Z,18.17
2022-12-01T17:14:59.516Z,17.87
2022-12-01T17:18:03.476Z,17.61
2022-12-01T17:21:07.494Z,18.36
2022-12-01T17:24:11.557Z,17.50
2022-12-01T17:27:15.540Z,18.09
2022-12-01T17:30:19.550Z,17.51
2022-12-01T17:33:23.583Z,17.87
2022-12-01T17:36:27.740Z,17.62
2022-12-01T17:39:32.214Z,17.02
2022-12-01T17:42:36.342Z,17.72
2022-12-01T17:45:40.394Z,17.33
2022-12-01T17:48:44.451Z,17.80
2022-12-01T17:51:48.313Z,18.05
2022-12-01T17:54:52.716Z,18.17
2022-12-01T17:57:56.577Z,18.30
2022-12-01T18:01:00.380Z,17.68
2022-12-01T18:04:04.361Z,18.30
2022-12-01T18:07:08.456Z,18.77
2022-12-01T18:10:12.330Z,19.39
2022-12-01T18:13:16.231Z,19.72
2022-12-01T18:16:20.369Z,19.65
2022-12-01T18:19:24.571Z,19.31
2022-12-01T18:22:28.777Z,17.51
2022-12-01T18:25:32.706Z,18.56
2022-12-01T18:28:39.049Z,19.37
2022-12-01T18:31:43.033Z,19.71
2022-12-01T18:34:47.036Z,19.03
2022-12-01T18:37:50.754Z,19.48
2022-12-01T18:40:54.981Z,20.11
2022-12-01T18:43:58.901Z,20.75
2022-12-01T18:47:02.856Z,20.52
2022-12-01T18:50:06.920Z,20.16
2022-12-01T18:53:11.157Z,20.76
2022-12-01T18:56:15.484Z,20.85
2022-12-01T18:59:19.429Z,20.47
2022-12-01T19:02:23.582Z,19.26
2022-12-01T19:05:27.636Z,19.48
2022-12-01T19:08:31.620Z,19.08
2022-12-01T19:11:35.736Z,18.98
2022-12-01T19:14:39.745Z,19.99
2022-12-01T19:17:43.948Z,19.55
2022-12-01T19:20:48.227Z,19.93
2022-12-01T19:23:52.120Z,19.29
2022-12-01T19:26:55.777Z,20.39
2022-12-01T19:30:00.004Z,19.40
2022-12-01T19:33:03.950Z,19.31
2022-12-01T19:36:08.048Z,19.44
2022-12-01T19:39:12.048Z,19.10
2022-12-01T19:42:15.989Z,18.94
2022-12-01T19:45:20.076Z,19.68
2022-12-01T19:48:24.081Z,20.15
2022-12-01T19:51:28.071Z,19.11
2022-12-01T19:54:32.128Z,19.22
2022-12-01T19:57:36.199Z,19.11
2022-12-01T20:00:40.337Z,18.66
2022-12-01T20:03:44.338Z,19.13
2022-12-01T20:06:48.152Z,19.19
2022-12-01T20:09:52.265Z,19.37
2022-12-01T20:12:56.409Z,18.61
2022-12-01T20:16:00.504Z,18.98
2022-12-01T20:19:04.443Z,18.52
2022-12-01T20:22:08.515Z,18.47
2022-12-01T20:25:12.584Z,18.39
2022-12-01T20:28:16.712Z,18.31
2022-12-01T20:31:21.091Z,18.82
2022-12-01T20:34:24.756Z,20.04
2022-12-01T20:37:28.829Z,19.07
2022-12-01T20:40:33.027Z,18.61
2022-12-01T20:43:37.608Z,19.16
2022-12-01T20:46:41.615Z,18.84
2022-12-01T20:49:45.703Z,18.63
2022-12-01T20:52:49.791Z,18.32
2022-12-01T20:55:53.951Z,19.24
2022-12-01T20:58:58.137Z,18.96
2022-12-01T21:02:02.191Z,18.73
2022-12-01T21:05:06.298Z,18.60
2022-12-01T21:08:10.416Z,19.15
2022-12-01T21:11:14.257Z,18.50
2022-12-01T21:14:17.919Z,18.35
2022-12-01T21:17:21.820Z,18.75
2022-12-01T21:20:26.025Z,18.77
2022-12-01T21:23:30.273Z,18.31
2022-12-01T21:26:34.128Z,18.55
2022-12-01T21:29:38.161Z,18.54
2022-12-01T21:32:44.008Z,19.01
2022-12-01T21:35:48.211Z,18.86
2022-12-01T21:38:52.152Z,19.17
2022-12-01T21:41:56.220Z,19.14
2022-12-01T21:45:00.253Z,19.82
2022-12-01T21:48:04.205Z,19.53
2022-12-01T21:51:08.148Z,19.45
2022-12-01T21:54:12.298Z,20.07
2022-12-01T21:57:16.323Z,19.08
2022-12-01T22:00:20.289Z,18.93
2022-12-01T22:03:24.673Z,19.03
2022-12-01T22:06:30.067Z,19.03
2022-12-01T22:09:34.562Z,18.13
2022-12-01T22:12:38.794Z,19.16
2022-12-01T22:15:42.781Z,19.16
2022-12-01T22:18:46.796Z,18.31
2022-12-01T22:21:50.623Z,18.51
2022-12-01T22:24:54.760Z,19.06
2022-12-01T22:28:01.544Z,19.27
2022-12-01T22:31:05.796Z,19.14
2022-12-01T22:34:09.704Z,19.42
2022-12-01T22:37:13.653Z,18.38
2022-12-01T22:40:17.667Z,19.46
2022-12-01T22:43:21.877Z,19.70
2022-12-01T22:46:25.977Z,19.23
2022-12-01T22:49:30.083Z,19.03
2022-12-01T22:52:34.217Z,18.86
2022-12-01T22:55:38.365Z,19.05
2022-12-01T22:58:42.532Z,18.78
2022-12-01T23:01:46.098Z,18.89
2022-12-01T23:04:50.147Z,18.46
2022-12-01T23:07:54.482Z,18.75
2022-12-01T23:10:58.492Z,18.04
2022-12-01T23:14:02.322Z,18.00
2022-12-01T23:20:28.433Z,17.29
2022-12-01T23:23:32.423Z,18.77
2022-12-01T23:26:36.536Z,18.20
2022-12-01T23:29:40.678Z,18.16
2022-12-01T23:32:44.362Z,18.17
2022-12-01T23:35:49.211Z,17.12
2022-12-01T23:38:53.204Z,18.60
2022-12-01T23:41:57.223Z,16.92
2022-12-01T23:45:01.082Z,17.94
2022-12-01T23:48:10.848Z,17.31
2022-12-01T23:51:15.209Z,16.76
2022-12-01T23:54:19.526Z,17.16
2022-12-01T23:57:23.532Z,16.86
